FRS123 EDGS-EDMH
Flight info
| Callsign | FRS123 |
|---|---|
| Flight time | 1h 1m |
| Altitude | 3500 |
| Route | DCT |
| Aircraft | PA24/L-SDGRY/S |
Departure
| Time | 2026-04-28 06:26 |
|---|---|
| Airport | Siegerland Airport (EDGS) |
Arrival
| Time | 2026-04-28 07:28 |
|---|---|
| Airport | Gunzenhausen-Reutberg Airfield (EDMH) |
| Time | Latitude | Longitude | Altitude | Speed | Heading |
|---|---|---|---|---|---|
| 2026-04-28 06:19 | 50.70529 | 8.07814 | 1958 ft | 0 kts | 336° |
| 2026-04-28 06:20 | 50.70536 | 8.07810 | 1958 ft | 0 kts | 342° |
| 2026-04-28 06:22 | 50.70550 | 8.07830 | 1958 ft | 10 kts | 59° |
| 2026-04-28 06:22 | 50.70620 | 8.07967 | 1958 ft | 19 kts | 38° |
| 2026-04-28 06:22 | 50.70705 | 8.07988 | 1958 ft | 9 kts | 317° |
| 2026-04-28 06:22 | 50.70780 | 8.07857 | 1958 ft | 17 kts | 320° |
| 2026-04-28 06:23 | 50.70851 | 8.07904 | 1958 ft | 0 kts | 39° |
| 2026-04-28 06:23 | 50.70874 | 8.07933 | 1958 ft | 17 kts | 39° |
| 2026-04-28 06:23 | 50.70888 | 8.08049 | 1960 ft | 7 kts | 124° |
| 2026-04-28 06:24 | 50.70886 | 8.08053 | 1960 ft | 0 kts | 124° |
| 2026-04-28 06:25 | 50.70848 | 8.08134 | 1959 ft | 35 kts | 128° |
| 2026-04-28 06:25 | 50.70566 | 8.08677 | 2030 ft | 78 kts | 124° |
| 2026-04-28 06:26 | 50.70251 | 8.09299 | 2287 ft | 75 kts | 112° |
| 2026-04-28 06:26 | 50.70033 | 8.10065 | 2478 ft | 73 kts | 109° |
| 2026-04-28 06:26 | 50.69892 | 8.10826 | 2638 ft | 73 kts | 101° |
| 2026-04-28 06:26 | 50.69680 | 8.11586 | 2747 ft | 78 kts | 121° |
| 2026-04-28 06:27 | 50.69363 | 8.12289 | 2912 ft | 86 kts | 115° |
| 2026-04-28 06:27 | 50.69076 | 8.13127 | 3052 ft | 84 kts | 110° |
| 2026-04-28 06:27 | 50.68837 | 8.13975 | 3142 ft | 83 kts | 109° |
| 2026-04-28 06:27 | 50.68631 | 8.14800 | 3300 ft | 82 kts | 109° |
| 2026-04-28 06:28 | 50.68279 | 8.15539 | 3372 ft | 89 kts | 140° |
| 2026-04-28 06:28 | 50.67753 | 8.16032 | 3534 ft | 93 kts | 145° |
| 2026-04-28 06:28 | 50.67145 | 8.16558 | 3698 ft | 100 kts | 133° |
| 2026-04-28 06:28 | 50.66773 | 8.17428 | 3944 ft | 103 kts | 112° |
| 2026-04-28 06:29 | 50.66455 | 8.18582 | 3950 ft | 121 kts | 111° |
| 2026-04-28 06:29 | 50.66097 | 8.19845 | 3956 ft | 132 kts | 112° |
| 2026-04-28 06:29 | 50.65689 | 8.21199 | 3924 ft | 137 kts | 112° |
| 2026-04-28 06:29 | 50.65293 | 8.22593 | 3774 ft | 150 kts | 112° |
| 2026-04-28 06:30 | 50.64831 | 8.24135 | 3597 ft | 156 kts | 115° |
| 2026-04-28 06:30 | 50.64344 | 8.25669 | 3444 ft | 156 kts | 114° |
| 2026-04-28 06:30 | 50.63904 | 8.27170 | 3460 ft | 148 kts | 112° |
| 2026-04-28 06:30 | 50.63500 | 8.28618 | 3464 ft | 144 kts | 113° |
| 2026-04-28 06:31 | 50.63097 | 8.30031 | 3504 ft | 139 kts | 114° |
| 2026-04-28 06:31 | 50.62681 | 8.31419 | 3499 ft | 141 kts | 114° |
| 2026-04-28 06:31 | 50.62271 | 8.32839 | 3531 ft | 142 kts | 113° |
| 2026-04-28 06:31 | 50.61865 | 8.34245 | 3535 ft | 141 kts | 113° |
| 2026-04-28 06:32 | 50.61460 | 8.35650 | 3538 ft | 141 kts | 113° |
| 2026-04-28 06:32 | 50.61053 | 8.37044 | 3540 ft | 139 kts | 113° |
| 2026-04-28 06:32 | 50.60640 | 8.38422 | 3540 ft | 140 kts | 115° |
| 2026-04-28 06:32 | 50.60237 | 8.39798 | 3539 ft | 141 kts | 113° |
| 2026-04-28 06:33 | 50.59848 | 8.41221 | 3541 ft | 143 kts | 110° |
| 2026-04-28 06:33 | 50.59475 | 8.42672 | 3543 ft | 143 kts | 111° |
| 2026-04-28 06:33 | 50.59093 | 8.44110 | 3544 ft | 141 kts | 112° |
| 2026-04-28 06:33 | 50.58701 | 8.45524 | 3544 ft | 141 kts | 112° |
| 2026-04-28 06:34 | 50.58311 | 8.46891 | 3542 ft | 142 kts | 113° |
| 2026-04-28 06:34 | 50.57906 | 8.48310 | 3540 ft | 142 kts | 113° |
| 2026-04-28 06:34 | 50.57488 | 8.49716 | 3541 ft | 142 kts | 114° |
| 2026-04-28 06:34 | 50.57065 | 8.51087 | 3540 ft | 141 kts | 115° |
| 2026-04-28 06:35 | 50.56616 | 8.52448 | 3540 ft | 140 kts | 116° |
| 2026-04-28 06:35 | 50.56151 | 8.53815 | 3540 ft | 143 kts | 118° |
| 2026-04-28 06:35 | 50.55685 | 8.55198 | 3537 ft | 144 kts | 117° |
| 2026-04-28 06:35 | 50.55207 | 8.56586 | 3537 ft | 145 kts | 118° |
| 2026-04-28 06:36 | 50.54712 | 8.57963 | 3536 ft | 144 kts | 120° |
| 2026-04-28 06:36 | 50.54196 | 8.59316 | 3533 ft | 144 kts | 120° |
| 2026-04-28 06:36 | 50.53662 | 8.60655 | 3538 ft | 145 kts | 122° |
| 2026-04-28 06:36 | 50.53083 | 8.61924 | 3536 ft | 145 kts | 129° |
| 2026-04-28 06:37 | 50.52347 | 8.63013 | 3534 ft | 147 kts | 140° |
| 2026-04-28 06:37 | 50.51542 | 8.63997 | 3535 ft | 146 kts | 140° |
| 2026-04-28 06:37 | 50.50748 | 8.64987 | 3535 ft | 145 kts | 140° |
| 2026-04-28 06:37 | 50.49950 | 8.65960 | 3536 ft | 145 kts | 140° |
| 2026-04-28 06:38 | 50.49155 | 8.66929 | 3534 ft | 144 kts | 139° |
| 2026-04-28 06:38 | 50.48370 | 8.67908 | 3534 ft | 144 kts | 140° |
| 2026-04-28 06:38 | 50.47583 | 8.68879 | 3534 ft | 144 kts | 139° |
| 2026-04-28 06:38 | 50.46792 | 8.69852 | 3548 ft | 144 kts | 140° |
| 2026-04-28 06:39 | 50.46015 | 8.70834 | 3541 ft | 146 kts | 140° |
| 2026-04-28 06:39 | 50.45218 | 8.71814 | 3533 ft | 145 kts | 137° |
| 2026-04-28 06:39 | 50.44453 | 8.72842 | 3532 ft | 145 kts | 136° |
| 2026-04-28 06:39 | 50.43676 | 8.73872 | 3529 ft | 145 kts | 137° |
| 2026-04-28 06:40 | 50.42906 | 8.74911 | 3532 ft | 147 kts | 136° |
| 2026-04-28 06:40 | 50.42134 | 8.75954 | 3529 ft | 147 kts | 137° |
| 2026-04-28 06:40 | 50.41365 | 8.77009 | 3526 ft | 147 kts | 136° |
| 2026-04-28 06:40 | 50.40595 | 8.78053 | 3524 ft | 146 kts | 137° |
| 2026-04-28 06:41 | 50.39822 | 8.79085 | 3530 ft | 147 kts | 138° |
| 2026-04-28 06:41 | 50.39061 | 8.80118 | 3528 ft | 147 kts | 137° |
| 2026-04-28 06:41 | 50.38294 | 8.81174 | 3532 ft | 147 kts | 136° |
| 2026-04-28 06:41 | 50.37531 | 8.82230 | 3525 ft | 146 kts | 137° |
| 2026-04-28 06:42 | 50.36770 | 8.83279 | 3528 ft | 146 kts | 135° |
| 2026-04-28 06:42 | 50.36004 | 8.84321 | 3529 ft | 146 kts | 137° |
| 2026-04-28 06:42 | 50.35238 | 8.85367 | 3521 ft | 146 kts | 137° |
| 2026-04-28 06:42 | 50.34468 | 8.86400 | 3522 ft | 147 kts | 137° |
| 2026-04-28 06:43 | 50.33706 | 8.87456 | 3525 ft | 146 kts | 136° |
| 2026-04-28 06:43 | 50.32946 | 8.88510 | 3516 ft | 146 kts | 136° |
| 2026-04-28 06:43 | 50.32320 | 8.89737 | 3514 ft | 146 kts | 112° |
| 2026-04-28 06:43 | 50.31991 | 8.91201 | 3521 ft | 144 kts | 108° |
| 2026-04-28 06:44 | 50.31669 | 8.92686 | 3525 ft | 144 kts | 109° |
| 2026-04-28 06:44 | 50.31184 | 8.94059 | 3521 ft | 145 kts | 124° |
| 2026-04-28 06:44 | 50.30564 | 8.95303 | 3525 ft | 146 kts | 128° |
| 2026-04-28 06:44 | 50.29923 | 8.96519 | 3524 ft | 143 kts | 128° |
| 2026-04-28 06:45 | 50.29252 | 8.97678 | 3520 ft | 144 kts | 129° |
| 2026-04-28 06:45 | 50.28578 | 8.98837 | 3520 ft | 144 kts | 129° |
| 2026-04-28 06:45 | 50.27924 | 8.99988 | 3524 ft | 143 kts | 129° |
| 2026-04-28 06:45 | 50.27257 | 9.01144 | 3518 ft | 143 kts | 127° |
| 2026-04-28 06:46 | 50.26677 | 9.02403 | 3526 ft | 143 kts | 122° |
| 2026-04-28 06:46 | 50.26106 | 9.03685 | 3526 ft | 145 kts | 123° |
| 2026-04-28 06:46 | 50.25540 | 9.04981 | 3520 ft | 144 kts | 122° |
| 2026-04-28 06:46 | 50.24992 | 9.06282 | 3524 ft | 142 kts | 121° |
| 2026-04-28 06:47 | 50.24436 | 9.07560 | 3512 ft | 143 kts | 124° |
| 2026-04-28 06:47 | 50.23827 | 9.08793 | 3514 ft | 144 kts | 125° |
| 2026-04-28 06:47 | 50.23219 | 9.10020 | 3515 ft | 146 kts | 126° |
| 2026-04-28 06:47 | 50.22607 | 9.11288 | 3518 ft | 147 kts | 124° |
| 2026-04-28 06:48 | 50.21987 | 9.12558 | 3515 ft | 147 kts | 124° |
| 2026-04-28 06:48 | 50.21380 | 9.13821 | 3517 ft | 145 kts | 126° |
| 2026-04-28 06:48 | 50.20763 | 9.15088 | 3517 ft | 148 kts | 124° |
| 2026-04-28 06:48 | 50.20151 | 9.16383 | 3517 ft | 149 kts | 126° |
| 2026-04-28 06:49 | 50.19425 | 9.17522 | 3515 ft | 148 kts | 140° |
| 2026-04-28 06:49 | 50.18580 | 9.18461 | 3513 ft | 150 kts | 142° |
| 2026-04-28 06:49 | 50.17704 | 9.19352 | 3515 ft | 151 kts | 143° |
| 2026-04-28 06:49 | 50.16821 | 9.20195 | 3506 ft | 151 kts | 145° |
| 2026-04-28 06:50 | 50.15947 | 9.21083 | 3507 ft | 150 kts | 143° |
| 2026-04-28 06:50 | 50.15072 | 9.21955 | 3505 ft | 148 kts | 145° |
| 2026-04-28 06:50 | 50.14209 | 9.22804 | 3502 ft | 146 kts | 144° |
| 2026-04-28 06:50 | 50.13345 | 9.23648 | 3513 ft | 148 kts | 144° |
| 2026-04-28 06:51 | 50.12459 | 9.24495 | 3511 ft | 150 kts | 143° |
| 2026-04-28 06:51 | 50.11574 | 9.25363 | 3512 ft | 150 kts | 145° |
| 2026-04-28 06:51 | 50.10692 | 9.26226 | 3507 ft | 149 kts | 144° |
| 2026-04-28 06:51 | 50.09820 | 9.27104 | 3508 ft | 149 kts | 144° |
| 2026-04-28 06:52 | 50.08952 | 9.27934 | 3507 ft | 148 kts | 144° |
| 2026-04-28 06:52 | 50.08095 | 9.28815 | 3506 ft | 147 kts | 143° |
| 2026-04-28 06:52 | 50.07239 | 9.29679 | 3502 ft | 146 kts | 144° |
| 2026-04-28 06:52 | 50.06378 | 9.30520 | 3505 ft | 147 kts | 144° |
| 2026-04-28 06:53 | 50.05527 | 9.31389 | 3510 ft | 146 kts | 143° |
| 2026-04-28 06:53 | 50.04655 | 9.32240 | 3508 ft | 149 kts | 144° |
| 2026-04-28 06:53 | 50.03780 | 9.33098 | 3507 ft | 149 kts | 143° |
| 2026-04-28 06:53 | 50.02911 | 9.33962 | 3505 ft | 148 kts | 143° |
| 2026-04-28 06:54 | 50.02045 | 9.34817 | 3503 ft | 147 kts | 143° |
| 2026-04-28 06:54 | 50.01187 | 9.35650 | 3501 ft | 147 kts | 144° |
| 2026-04-28 06:54 | 50.00325 | 9.36494 | 3500 ft | 147 kts | 143° |
| 2026-04-28 06:54 | 49.99467 | 9.37348 | 3499 ft | 147 kts | 143° |
| 2026-04-28 06:55 | 49.98607 | 9.38208 | 3501 ft | 147 kts | 143° |
| 2026-04-28 06:55 | 49.97748 | 9.39068 | 3506 ft | 147 kts | 144° |
| 2026-04-28 06:55 | 49.96883 | 9.39948 | 3512 ft | 150 kts | 143° |
| 2026-04-28 06:55 | 49.96008 | 9.40838 | 3509 ft | 151 kts | 143° |
| 2026-04-28 06:56 | 49.95128 | 9.41722 | 3504 ft | 150 kts | 143° |
| 2026-04-28 06:56 | 49.94281 | 9.42605 | 3497 ft | 148 kts | 143° |
| 2026-04-28 06:56 | 49.93415 | 9.43475 | 3492 ft | 147 kts | 143° |
| 2026-04-28 06:56 | 49.92561 | 9.44329 | 3491 ft | 146 kts | 143° |
| 2026-04-28 06:57 | 49.91710 | 9.45176 | 3498 ft | 146 kts | 143° |
| 2026-04-28 06:57 | 49.90860 | 9.46040 | 3501 ft | 146 kts | 143° |
| 2026-04-28 06:57 | 49.90004 | 9.46890 | 3493 ft | 146 kts | 144° |
| 2026-04-28 06:57 | 49.89164 | 9.47760 | 3507 ft | 145 kts | 141° |
| 2026-04-28 06:58 | 49.88327 | 9.48638 | 3504 ft | 145 kts | 143° |
| 2026-04-28 06:58 | 49.87487 | 9.49491 | 3507 ft | 146 kts | 143° |
| 2026-04-28 06:58 | 49.86649 | 9.50354 | 3508 ft | 147 kts | 143° |
| 2026-04-28 06:58 | 49.85798 | 9.51228 | 3507 ft | 148 kts | 143° |
| 2026-04-28 06:59 | 49.84944 | 9.52118 | 3511 ft | 148 kts | 142° |
| 2026-04-28 06:59 | 49.84203 | 9.53213 | 3483 ft | 149 kts | 117° |
| 2026-04-28 06:59 | 49.83855 | 9.54680 | 3506 ft | 143 kts | 108° |
| 2026-04-28 06:59 | 49.83537 | 9.56137 | 3496 ft | 143 kts | 109° |
| 2026-04-28 07:00 | 49.83078 | 9.57496 | 3498 ft | 143 kts | 123° |
| 2026-04-28 07:00 | 49.82505 | 9.58751 | 3502 ft | 143 kts | 122° |
| 2026-04-28 07:00 | 49.81943 | 9.59995 | 3509 ft | 143 kts | 123° |
| 2026-04-28 07:00 | 49.81365 | 9.61253 | 3504 ft | 143 kts | 122° |
| 2026-04-28 07:01 | 49.80811 | 9.62542 | 3500 ft | 145 kts | 122° |
| 2026-04-28 07:01 | 49.80239 | 9.63834 | 3499 ft | 146 kts | 124° |
| 2026-04-28 07:01 | 49.79669 | 9.65130 | 3503 ft | 146 kts | 121° |
| 2026-04-28 07:01 | 49.79096 | 9.66430 | 3504 ft | 146 kts | 123° |
| 2026-04-28 07:02 | 49.78510 | 9.67714 | 3494 ft | 146 kts | 122° |
| 2026-04-28 07:02 | 49.77940 | 9.69005 | 3494 ft | 145 kts | 121° |
| 2026-04-28 07:02 | 49.77375 | 9.70295 | 3499 ft | 146 kts | 123° |
| 2026-04-28 07:02 | 49.76809 | 9.71561 | 3504 ft | 144 kts | 122° |
| 2026-04-28 07:03 | 49.76256 | 9.72866 | 3500 ft | 145 kts | 122° |
| 2026-04-28 07:03 | 49.75691 | 9.74158 | 3504 ft | 145 kts | 122° |
| 2026-04-28 07:03 | 49.75130 | 9.75454 | 3499 ft | 145 kts | 121° |
| 2026-04-28 07:03 | 49.74566 | 9.76732 | 3498 ft | 144 kts | 123° |
| 2026-04-28 07:04 | 49.74016 | 9.78031 | 3502 ft | 145 kts | 121° |
| 2026-04-28 07:04 | 49.73445 | 9.79320 | 3491 ft | 146 kts | 123° |
| 2026-04-28 07:04 | 49.72887 | 9.80604 | 3492 ft | 145 kts | 121° |
| 2026-04-28 07:04 | 49.72322 | 9.81885 | 3488 ft | 144 kts | 122° |
| 2026-04-28 07:05 | 49.71766 | 9.83172 | 3488 ft | 143 kts | 121° |
| 2026-04-28 07:05 | 49.71213 | 9.84456 | 3490 ft | 145 kts | 121° |
| 2026-04-28 07:05 | 49.70645 | 9.85751 | 3493 ft | 147 kts | 121° |
| 2026-04-28 07:05 | 49.70075 | 9.87042 | 3486 ft | 144 kts | 121° |
| 2026-04-28 07:06 | 49.69526 | 9.88329 | 3483 ft | 145 kts | 122° |
| 2026-04-28 07:06 | 49.68949 | 9.89606 | 3498 ft | 144 kts | 121° |
| 2026-04-28 07:06 | 49.68419 | 9.90840 | 3482 ft | 144 kts | 121° |
| 2026-04-28 07:06 | 49.67866 | 9.92131 | 3492 ft | 144 kts | 121° |
| 2026-04-28 07:07 | 49.67310 | 9.93413 | 3495 ft | 144 kts | 121° |
| 2026-04-28 07:07 | 49.66678 | 9.94600 | 3480 ft | 144 kts | 135° |
| 2026-04-28 07:07 | 49.65969 | 9.95624 | 3472 ft | 145 kts | 133° |
| 2026-04-28 07:07 | 49.65247 | 9.96714 | 3489 ft | 146 kts | 132° |
| 2026-04-28 07:08 | 49.64524 | 9.97796 | 3493 ft | 145 kts | 136° |
| 2026-04-28 07:08 | 49.63649 | 9.98611 | 3481 ft | 149 kts | 150° |
| 2026-04-28 07:08 | 49.62704 | 9.99284 | 3478 ft | 150 kts | 150° |
| 2026-04-28 07:08 | 49.61775 | 9.99958 | 3481 ft | 150 kts | 150° |
| 2026-04-28 07:09 | 49.60820 | 10.00632 | 3475 ft | 151 kts | 152° |
| 2026-04-28 07:09 | 49.59866 | 10.01309 | 3476 ft | 151 kts | 150° |
| 2026-04-28 07:09 | 49.58935 | 10.02046 | 3470 ft | 150 kts | 147° |
| 2026-04-28 07:09 | 49.58024 | 10.02817 | 3472 ft | 149 kts | 147° |
| 2026-04-28 07:10 | 49.57108 | 10.03580 | 3472 ft | 150 kts | 147° |
| 2026-04-28 07:10 | 49.56204 | 10.04377 | 3477 ft | 150 kts | 147° |
| 2026-04-28 07:10 | 49.55277 | 10.05139 | 3474 ft | 152 kts | 147° |
| 2026-04-28 07:10 | 49.54362 | 10.05893 | 3476 ft | 150 kts | 148° |
| 2026-04-28 07:11 | 49.53434 | 10.06648 | 3470 ft | 151 kts | 146° |
| 2026-04-28 07:11 | 49.52523 | 10.07434 | 3472 ft | 150 kts | 147° |
| 2026-04-28 07:11 | 49.51610 | 10.08216 | 3469 ft | 150 kts | 146° |
| 2026-04-28 07:11 | 49.50698 | 10.09003 | 3470 ft | 150 kts | 147° |
| 2026-04-28 07:12 | 49.49779 | 10.09768 | 3466 ft | 151 kts | 147° |
| 2026-04-28 07:12 | 49.48870 | 10.10551 | 3471 ft | 150 kts | 147° |
| 2026-04-28 07:12 | 49.47958 | 10.11326 | 3473 ft | 149 kts | 150° |
| 2026-04-28 07:12 | 49.47060 | 10.12103 | 3469 ft | 149 kts | 145° |
| 2026-04-28 07:13 | 49.46151 | 10.12882 | 3469 ft | 150 kts | 147° |
| 2026-04-28 07:13 | 49.45260 | 10.13730 | 3462 ft | 151 kts | 138° |
| 2026-04-28 07:13 | 49.44452 | 10.14757 | 3471 ft | 150 kts | 136° |
| 2026-04-28 07:13 | 49.43663 | 10.15786 | 3467 ft | 148 kts | 137° |
| 2026-04-28 07:14 | 49.42868 | 10.16796 | 3466 ft | 149 kts | 137° |
| 2026-04-28 07:14 | 49.42078 | 10.17807 | 3471 ft | 147 kts | 138° |
| 2026-04-28 07:14 | 49.41280 | 10.18812 | 3472 ft | 149 kts | 136° |
| 2026-04-28 07:14 | 49.40488 | 10.19816 | 3472 ft | 150 kts | 137° |
| 2026-04-28 07:15 | 49.39684 | 10.20831 | 3473 ft | 149 kts | 139° |
| 2026-04-28 07:15 | 49.38916 | 10.21906 | 3469 ft | 150 kts | 126° |
| 2026-04-28 07:15 | 49.38316 | 10.23204 | 3477 ft | 148 kts | 125° |
| 2026-04-28 07:15 | 49.37688 | 10.24432 | 3472 ft | 145 kts | 126° |
| 2026-04-28 07:16 | 49.37073 | 10.25665 | 3473 ft | 145 kts | 124° |
| 2026-04-28 07:16 | 49.36456 | 10.26881 | 3482 ft | 146 kts | 126° |
| 2026-04-28 07:16 | 49.35836 | 10.28130 | 3484 ft | 147 kts | 126° |
| 2026-04-28 07:16 | 49.35222 | 10.29357 | 3472 ft | 147 kts | 126° |
| 2026-04-28 07:17 | 49.34599 | 10.30603 | 3477 ft | 148 kts | 126° |
| 2026-04-28 07:17 | 49.33973 | 10.31861 | 3498 ft | 150 kts | 124° |
| 2026-04-28 07:17 | 49.33361 | 10.33146 | 3490 ft | 148 kts | 125° |
| 2026-04-28 07:17 | 49.32752 | 10.34412 | 3493 ft | 148 kts | 124° |
| 2026-04-28 07:18 | 49.32140 | 10.35681 | 3486 ft | 148 kts | 125° |
| 2026-04-28 07:18 | 49.31533 | 10.36930 | 3495 ft | 145 kts | 124° |
| 2026-04-28 07:18 | 49.30939 | 10.38183 | 3494 ft | 145 kts | 125° |
| 2026-04-28 07:18 | 49.30340 | 10.39418 | 3471 ft | 144 kts | 124° |
| 2026-04-28 07:19 | 49.29758 | 10.40633 | 3488 ft | 143 kts | 125° |
| 2026-04-28 07:19 | 49.29166 | 10.41862 | 3496 ft | 144 kts | 126° |
| 2026-04-28 07:19 | 49.28587 | 10.43054 | 3485 ft | 145 kts | 125° |
| 2026-04-28 07:19 | 49.27986 | 10.44293 | 3494 ft | 145 kts | 125° |
| 2026-04-28 07:20 | 49.27385 | 10.45537 | 3496 ft | 146 kts | 124° |
| 2026-04-28 07:20 | 49.26789 | 10.46799 | 3504 ft | 147 kts | 124° |
| 2026-04-28 07:20 | 49.26184 | 10.48071 | 3501 ft | 148 kts | 126° |
| 2026-04-28 07:20 | 49.25590 | 10.49319 | 3499 ft | 146 kts | 124° |
| 2026-04-28 07:21 | 49.24993 | 10.50592 | 3485 ft | 148 kts | 124° |
| 2026-04-28 07:21 | 49.24401 | 10.51869 | 3490 ft | 147 kts | 124° |
| 2026-04-28 07:21 | 49.23801 | 10.53135 | 3495 ft | 147 kts | 124° |
| 2026-04-28 07:22 | 49.22576 | 10.55646 | 3493 ft | 147 kts | 126° |
| 2026-04-28 07:22 | 49.21972 | 10.56897 | 3494 ft | 145 kts | 123° |
| 2026-04-28 07:22 | 49.21383 | 10.58147 | 3510 ft | 145 kts | 124° |
| 2026-04-28 07:22 | 49.20784 | 10.59399 | 3507 ft | 147 kts | 126° |
| 2026-04-28 07:23 | 49.20194 | 10.60653 | 3507 ft | 147 kts | 123° |
| 2026-04-28 07:23 | 49.19609 | 10.61912 | 3528 ft | 143 kts | 124° |
| 2026-04-28 07:23 | 49.19041 | 10.63162 | 3394 ft | 146 kts | 123° |
| 2026-04-28 07:23 | 49.18440 | 10.64433 | 3263 ft | 146 kts | 124° |
| 2026-04-28 07:24 | 49.17864 | 10.65675 | 3233 ft | 142 kts | 124° |
| 2026-04-28 07:24 | 49.17197 | 10.66810 | 3038 ft | 148 kts | 137° |
| 2026-04-28 07:24 | 49.16352 | 10.67676 | 2939 ft | 144 kts | 144° |
| 2026-04-28 07:24 | 49.15522 | 10.68492 | 2866 ft | 142 kts | 143° |
| 2026-04-28 07:25 | 49.14687 | 10.69325 | 2724 ft | 147 kts | 141° |
| 2026-04-28 07:25 | 49.13871 | 10.70248 | 2648 ft | 145 kts | 140° |
| 2026-04-28 07:25 | 49.13065 | 10.71172 | 2528 ft | 147 kts | 139° |
| 2026-04-28 07:25 | 49.12352 | 10.72287 | 2398 ft | 147 kts | 127° |
| 2026-04-28 07:26 | 49.11699 | 10.73461 | 2353 ft | 143 kts | 129° |
| 2026-04-28 07:26 | 49.11036 | 10.74610 | 2321 ft | 140 kts | 129° |
| 2026-04-28 07:26 | 49.10495 | 10.75561 | 2335 ft | 101 kts | 126° |
| 2026-04-28 07:26 | 49.10035 | 10.75923 | 2256 ft | 80 kts | 200° |
| 2026-04-28 07:27 | 49.09929 | 10.75179 | 2137 ft | 82 kts | 313° |
| 2026-04-28 07:27 | 49.10409 | 10.75247 | 1961 ft | 83 kts | 54° |
| 2026-04-28 07:27 | 49.10513 | 10.76109 | 1882 ft | 84 kts | 79° |
| 2026-04-28 07:27 | 49.10723 | 10.76909 | 1753 ft | 75 kts | 60° |
| 2026-04-28 07:28 | 49.10976 | 10.77552 | 1612 ft | 67 kts | 59° |
| 2026-04-28 07:28 | 49.11175 | 10.78071 | 1581 ft | 40 kts | 60° |
| 2026-04-28 07:28 | 49.11236 | 10.78171 | 1587 ft | 8 kts | 349° |
| 2026-04-28 07:28 | 49.11260 | 10.78205 | 1590 ft | 0 kts | 53° |